Time;durP1;ratioP1;P1;durP2;ratioP2;P2;SDS_P1;SDS_P2;PMS_P1;PMS_P2;Temp;Humidity;BMP_temperature;BMP_pressure;BME280_temperature;BME280_humidity;BME280_pressure;Samples;Min_cycle;Max_cycle;Signal;HPM_P1;HPM_P2
2021/04/30 00:00:33;;;;;;;24.40;18.07;;;;;;;;;;5071859;28;20395;-52
2021/04/30 00:02:59;;;;;;;27.93;19.43;;;;;;;;;;5071787;28;20404;-53
2021/04/30 00:05:28;;;;;;;30.33;17.90;;;;;;;;;;5071934;28;20398;-53
2021/04/30 00:07:54;;;;;;;22.07;18.73;;;;;;;;;;5071799;28;20422;-53
2021/04/30 00:10:20;;;;;;;23.00;17.37;;;;;;;;;;5071595;28;20508;-53
2021/04/30 00:12:46;;;;;;;23.60;18.40;;;;;;;;;;5071691;28;21078;-53
2021/04/30 00:15:13;;;;;;;22.50;16.77;;;;;;;;;;5071627;28;20437;-53
2021/04/30 00:17:39;;;;;;;30.43;18.70;;;;;;;;;;5071504;28;20987;-52
2021/04/30 00:20:05;;;;;;;20.93;17.73;;;;;;;;;;5071437;28;20730;-52
2021/04/30 00:22:31;;;;;;;19.50;16.60;;;;;;;;;;5071611;28;20407;-53
2021/04/30 00:24:58;;;;;;;20.50;16.80;;;;;;;;;;5071491;28;20401;-52
2021/04/30 00:27:23;;;;;;;25.23;19.00;;;;;;;;;;5071391;28;20872;-53
2021/04/30 00:29:49;;;;;;;29.20;17.97;;;;;;;;;;5071091;28;20415;-54
2021/04/30 00:32:15;;;;;;;21.97;16.30;;;;;;;;;;5071304;28;20399;-54
2021/04/30 00:34:42;;;;;;;22.07;17.07;;;;;;;;;;5071277;28;20396;-53
2021/04/30 00:37:08;;;;;;;21.97;17.20;;;;;;;;;;5071351;28;20480;-54
2021/04/30 00:39:34;;;;;;;23.23;18.27;;;;;;;;;;5070847;28;20450;-53
2021/04/30 00:42:00;;;;;;;30.67;18.70;;;;;;;;;;5071167;28;20780;-53
2021/04/30 00:44:26;;;;;;;21.57;16.27;;;;;;;;;;5070988;28;20798;-53
2021/04/30 00:46:52;;;;;;;28.20;18.30;;;;;;;;;;5071141;28;20426;-53
2021/04/30 00:49:19;;;;;;;18.50;15.23;;;;;;;;;;5070693;28;20898;-53
2021/04/30 00:51:45;;;;;;;20.97;15.97;;;;;;;;;;5071263;28;20486;-53
2021/04/30 00:54:11;;;;;;;32.80;16.27;;;;;;;;;;5070934;28;20528;-53
2021/04/30 00:56:37;;;;;;;23.23;17.33;;;;;;;;;;5070971;28;21028;-53
2021/04/30 00:59:03;;;;;;;22.03;15.60;;;;;;;;;;5070595;28;20423;-53
2021/04/30 01:01:29;;;;;;;26.93;18.00;;;;;;;;;;5070371;28;20404;-53
2021/04/30 01:03:55;;;;;;;21.60;16.50;;;;;;;;;;5052035;28;20845;-54
2021/04/30 01:06:21;;;;;;;29.27;18.47;;;;;;;;;;5070614;28;20904;-53
2021/04/30 01:08:48;;;;;;;27.17;18.13;;;;;;;;;;5052854;28;20430;-54
2021/04/30 01:11:14;;;;;;;29.43;18.30;;;;;;;;;;5070876;28;20458;-54
2021/04/30 01:13:40;;;;;;;32.67;19.23;;;;;;;;;;5070861;28;20403;-53
2021/04/30 01:16:06;;;;;;;25.33;20.73;;;;;;;;;;5070472;28;20935;-52
2021/04/30 01:18:41;;;;;;;29.23;21.80;;;;;;;;;;5070570;28;20427;-55
2021/04/30 01:21:07;;;;;;;37.22;22.33;;;;;;;;;;5071324;28;20405;-52
2021/04/30 01:23:34;;;;;;;30.70;22.13;;;;;;;;;;5070814;28;20655;-53
2021/04/30 01:26:00;;;;;;;31.37;21.83;;;;;;;;;;5070611;28;20400;-54
2021/04/30 01:28:26;;;;;;;33.07;23.03;;;;;;;;;;5070621;28;21028;-53
2021/04/30 01:30:52;;;;;;;33.87;24.80;;;;;;;;;;5070478;28;21081;-53
2021/04/30 01:33:21;;;;;;;35.10;24.47;;;;;;;;;;5070707;28;20400;-53
2021/04/30 01:35:47;;;;;;;39.50;25.53;;;;;;;;;;5070726;28;20466;-53
2021/04/30 01:38:13;;;;;;;43.03;26.97;;;;;;;;;;5070442;28;20462;-53
2021/04/30 01:40:39;;;;;;;37.20;24.90;;;;;;;;;;5070356;28;20864;-53
2021/04/30 01:43:07;;;;;;;34.43;24.87;;;;;;;;;;5070609;28;20437;-53
2021/04/30 01:45:37;;;;;;;35.53;25.43;;;;;;;;;;5070618;28;20853;-53
2021/04/30 01:48:09;;;;;;;43.20;26.20;;;;;;;;;;5070694;28;20428;-53
2021/04/30 01:50:35;;;;;;;39.83;28.27;;;;;;;;;;5070434;28;20425;-53
2021/04/30 01:53:01;;;;;;;38.57;26.20;;;;;;;;;;5070746;28;20826;-52
2021/04/30 01:55:28;;;;;;;40.30;28.10;;;;;;;;;;5070619;28;20400;-53
2021/04/30 01:57:54;;;;;;;43.50;26.17;;;;;;;;;;5070613;28;20874;-52
2021/04/30 02:00:25;;;;;;;46.00;26.60;;;;;;;;;;5070340;28;20394;-52
2021/04/30 02:02:54;;;;;;;44.07;28.03;;;;;;;;;;5070335;28;20467;-54
2021/04/30 02:05:21;;;;;;;45.55;29.48;;;;;;;;;;5070458;28;20402;-52
2021/04/30 02:07:47;;;;;;;43.47;29.20;;;;;;;;;;5070199;28;20655;-53
2021/04/30 02:10:22;;;;;;;45.60;28.65;;;;;;;;;;5070043;28;20435;-53
2021/04/30 02:12:48;;;;;;;50.20;30.20;;;;;;;;;;5070251;28;20697;-52
2021/04/30 02:15:15;;;;;;;46.10;28.37;;;;;;;;;;5072329;28;20174;-53
2021/04/30 02:17:41;;;;;;;55.83;30.60;;;;;;;;;;5073852;28;20479;-52
2021/04/30 02:20:07;;;;;;;48.47;30.13;;;;;;;;;;5073790;28;20194;-52
2021/04/30 02:22:34;;;;;;;53.20;31.53;;;;;;;;;;5073814;28;20403;-53
2021/04/30 02:25:00;;;;;;;47.67;31.30;;;;;;;;;;5056110;28;20443;-53
2021/04/30 02:27:26;;;;;;;51.07;32.17;;;;;;;;;;5073806;28;20440;-52
2021/04/30 02:29:52;;;;;;;60.33;30.07;;;;;;;;;;5073550;28;20911;-53
2021/04/30 02:32:18;;;;;;;52.80;31.63;;;;;;;;;;5073480;28;20445;-53
2021/04/30 02:34:44;;;;;;;58.30;30.57;;;;;;;;;;5073684;28;20402;-53
2021/04/30 02:37:10;;;;;;;48.33;28.10;;;;;;;;;;5073243;28;20449;-53
2021/04/30 02:39:37;;;;;;;50.60;29.23;;;;;;;;;;5073270;28;20433;-54
2021/04/30 02:42:03;;;;;;;49.67;28.00;;;;;;;;;;5073535;28;20403;-52
2021/04/30 02:44:29;;;;;;;42.77;28.03;;;;;;;;;;5073505;28;20396;-53
2021/04/30 02:46:55;;;;;;;44.17;26.40;;;;;;;;;;5073351;28;20412;-53
2021/04/30 02:49:27;;;;;;;49.90;27.20;;;;;;;;;;5073159;28;20418;-53
2021/04/30 02:51:53;;;;;;;42.47;26.50;;;;;;;;;;5073230;28;20407;-53
2021/04/30 02:54:19;;;;;;;40.40;25.40;;;;;;;;;;5073532;28;20393;-53
2021/04/30 02:56:45;;;;;;;41.17;27.40;;;;;;;;;;5073261;28;20816;-53
2021/04/30 02:59:11;;;;;;;41.77;25.20;;;;;;;;;;5072876;28;20422;-53
2021/04/30 03:01:37;;;;;;;43.50;25.60;;;;;;;;;;5073182;28;20399;-54
2021/04/30 03:04:03;;;;;;;44.20;25.53;;;;;;;;;;5073104;28;20401;-53
2021/04/30 03:06:29;;;;;;;38.85;25.55;;;;;;;;;;5073076;28;20433;-53
2021/04/30 03:08:55;;;;;;;42.40;25.50;;;;;;;;;;5072663;28;20264;-53
2021/04/30 03:11:21;;;;;;;48.93;26.83;;;;;;;;;;5073035;28;20400;-53
2021/04/30 03:13:47;;;;;;;49.77;26.40;;;;;;;;;;5072934;28;20396;-53
2021/04/30 03:16:13;;;;;;;45.90;25.37;;;;;;;;;;5072829;28;20410;-52
2021/04/30 03:18:39;;;;;;;41.37;24.23;;;;;;;;;;5072609;28;20440;-52
2021/04/30 03:21:05;;;;;;;45.73;26.23;;;;;;;;;;5072824;28;20454;-52
2021/04/30 03:23:31;;;;;;;44.10;26.00;;;;;;;;;;5072939;28;20405;-53
2021/04/30 03:25:57;;;;;;;46.27;23.93;;;;;;;;;;5072459;28;20424;-53
2021/04/30 03:28:23;;;;;;;39.67;25.67;;;;;;;;;;5072483;28;20425;-53
2021/04/30 03:30:49;;;;;;;38.43;25.57;;;;;;;;;;5072409;28;20401;-53
2021/04/30 03:33:15;;;;;;;41.47;24.53;;;;;;;;;;5072528;28;20886;-53
2021/04/30 03:35:41;;;;;;;42.07;26.10;;;;;;;;;;5072520;28;20408;-54
2021/04/30 03:38:07;;;;;;;50.30;26.67;;;;;;;;;;5071834;28;20908;-54
2021/04/30 03:40:33;;;;;;;43.80;27.73;;;;;;;;;;5072355;28;20408;-53
2021/04/30 03:42:59;;;;;;;46.13;25.40;;;;;;;;;;5072331;28;20858;-53
2021/04/30 03:45:25;;;;;;;38.90;24.50;;;;;;;;;;5072280;28;20404;-54
2021/04/30 03:47:51;;;;;;;40.67;25.83;;;;;;;;;;5072286;28;20424;-53
2021/04/30 03:50:17;;;;;;;45.27;25.90;;;;;;;;;;5071951;28;20508;-53
2021/04/30 03:52:43;;;;;;;47.93;26.03;;;;;;;;;;5072227;28;20401;-53
2021/04/30 03:55:09;;;;;;;40.57;25.40;;;;;;;;;;5072159;28;20975;-53
2021/04/30 03:57:35;;;;;;;42.00;26.70;;;;;;;;;;5071981;28;20458;-53
2021/04/30 04:00:01;;;;;;;43.27;25.87;;;;;;;;;;5071760;28;20426;-54
2021/04/30 04:02:27;;;;;;;49.83;27.33;;;;;;;;;;5072045;28;20913;-54
2021/04/30 04:04:53;;;;;;;50.03;27.70;;;;;;;;;;5071897;28;21025;-54
2021/04/30 04:07:19;;;;;;;56.60;27.30;;;;;;;;;;5071916;28;20490;-53
2021/04/30 04:09:45;;;;;;;46.67;28.70;;;;;;;;;;5071626;28;20498;-53
2021/04/30 04:12:11;;;;;;;49.80;27.50;;;;;;;;;;5071917;28;20899;-53
2021/04/30 04:14:37;;;;;;;45.63;27.17;;;;;;;;;;5071720;28;20816;-52
2021/04/30 04:17:03;;;;;;;46.13;28.03;;;;;;;;;;5071814;28;20942;-53
2021/04/30 04:19:29;;;;;;;54.13;28.93;;;;;;;;;;5071314;28;20412;-52
2021/04/30 04:21:55;;;;;;;45.67;27.87;;;;;;;;;;5071770;28;20831;-52
2021/04/30 04:24:21;;;;;;;61.83;30.13;;;;;;;;;;5071730;28;20405;-53
2021/04/30 04:26:47;;;;;;;54.33;30.87;;;;;;;;;;5071670;28;20407;-53
2021/04/30 04:29:13;;;;;;;59.33;32.90;;;;;;;;;;5071189;28;20493;-52
2021/04/30 04:31:39;;;;;;;59.17;31.97;;;;;;;;;;5071655;28;20408;-53
2021/04/30 04:34:05;;;;;;;56.30;32.37;;;;;;;;;;5071643;28;20737;-53
2021/04/30 04:36:32;;;;;;;59.10;32.30;;;;;;;;;;5071412;28;20533;-53
2021/04/30 04:38:58;;;;;;;59.13;32.97;;;;;;;;;;5070806;28;20442;-55
2021/04/30 04:41:24;;;;;;;59.60;33.90;;;;;;;;;;5071376;28;20484;-56
2021/04/30 04:43:50;;;;;;;63.13;32.17;;;;;;;;;;5071255;28;20539;-55
2021/04/30 04:46:16;;;;;;;71.57;32.58;;;;;;;;;;5071115;28;20501;-55
2021/04/30 04:48:42;;;;;;;66.13;35.50;;;;;;;;;;5071122;28;20623;-55
2021/04/30 04:51:08;;;;;;;68.65;35.67;;;;;;;;;;5071112;28;20896;-55
2021/04/30 04:53:35;;;;;;;67.60;39.43;;;;;;;;;;5071212;28;20177;-54
2021/04/30 04:56:00;;;;;;;65.37;34.93;;;;;;;;;;5070982;28;20959;-54
2021/04/30 04:58:26;;;;;;;69.90;35.47;;;;;;;;;;5071083;28;20461;-53
2021/04/30 05:00:52;;;;;;;75.27;37.70;;;;;;;;;;5070747;28;21062;-53
2021/04/30 05:03:18;;;;;;;65.70;34.87;;;;;;;;;;5070971;28;20399;-53
2021/04/30 05:05:44;;;;;;;61.00;35.63;;;;;;;;;;5070893;28;20439;-52
2021/04/30 05:08:10;;;;;;;65.97;35.70;;;;;;;;;;5070887;28;20416;-53
2021/04/30 05:10:36;;;;;;;66.70;36.60;;;;;;;;;;5070605;28;20487;-53
2021/04/30 05:13:02;;;;;;;65.80;34.07;;;;;;;;;;5070853;28;20892;-53
2021/04/30 05:15:28;;;;;;;64.40;37.00;;;;;;;;;;5070719;28;20400;-53
2021/04/30 05:17:54;;;;;;;67.60;35.10;;;;;;;;;;5070635;28;20456;-53
2021/04/30 05:20:20;;;;;;;63.07;34.30;;;;;;;;;;5070400;28;20400;-53
2021/04/30 05:22:46;;;;;;;68.90;36.00;;;;;;;;;;5070722;28;20397;-53
2021/04/30 05:25:13;;;;;;;63.20;33.53;;;;;;;;;;5070720;28;20898;-53
2021/04/30 05:27:45;;;;;;;56.83;30.90;;;;;;;;;;5070505;28;20481;-53
2021/04/30 05:30:12;;;;;;;68.17;34.17;;;;;;;;;;5070393;28;20425;-53
2021/04/30 05:32:39;;;;;;;59.90;32.25;;;;;;;;;;5070753;28;20500;-54
2021/04/30 05:35:06;;;;;;;63.93;31.37;;;;;;;;;;5070679;28;20658;-52
2021/04/30 05:37:32;;;;;;;57.17;32.83;;;;;;;;;;5070287;28;20542;-55
2021/04/30 05:39:59;;;;;;;56.95;31.85;;;;;;;;;;5070456;28;20997;-53
2021/04/30 05:42:25;;;;;;;54.28;31.77;;;;;;;;;;5070477;28;20166;-53
2021/04/30 05:44:52;;;;;;;54.07;30.53;;;;;;;;;;5070467;28;20255;-53
2021/04/30 05:47:18;;;;;;;52.80;29.73;;;;;;;;;;5070484;28;20413;-52
2021/04/30 05:49:44;;;;;;;55.50;30.00;;;;;;;;;;5073227;28;20462;-53
2021/04/30 05:52:10;;;;;;;54.40;30.60;;;;;;;;;;5074402;28;20403;-53
2021/04/30 05:54:36;;;;;;;59.57;30.57;;;;;;;;;;5074497;28;20843;-53
2021/04/30 05:57:02;;;;;;;69.07;31.03;;;;;;;;;;5074212;28;20457;-54
2021/04/30 05:59:28;;;;;;;59.92;33.08;;;;;;;;;;5074002;28;20465;-53
2021/04/30 06:01:54;;;;;;;68.03;31.47;;;;;;;;;;5074268;28;20227;-53
2021/04/30 06:04:21;;;;;;;51.13;31.80;;;;;;;;;;5074293;28;20407;-54
2021/04/30 06:06:50;;;;;;;61.70;31.77;;;;;;;;;;5074306;28;20524;-53
2021/04/30 06:09:17;;;;;;;62.87;32.90;;;;;;;;;;5073955;28;20453;-54
2021/04/30 06:11:43;;;;;;;61.65;32.42;;;;;;;;;;5073664;28;20487;-53
2021/04/30 06:14:09;;;;;;;67.68;33.72;;;;;;;;;;5073412;28;20182;-53
2021/04/30 06:16:35;;;;;;;75.03;34.63;;;;;;;;;;5073387;28;20198;-53
2021/04/30 06:19:02;;;;;;;66.03;31.87;;;;;;;;;;5073032;28;20933;-53
2021/04/30 06:21:28;;;;;;;69.00;35.67;;;;;;;;;;5073494;28;20388;-53
2021/04/30 06:23:54;;;;;;;65.20;31.92;;;;;;;;;;5073209;28;20903;-52
2021/04/30 06:26:20;;;;;;;61.30;33.25;;;;;;;;;;5073220;28;20189;-53
2021/04/30 06:28:46;;;;;;;61.57;33.03;;;;;;;;;;5072675;28;20217;-53
2021/04/30 06:31:12;;;;;;;70.57;34.43;;;;;;;;;;5073316;28;20964;-53
2021/04/30 06:33:38;;;;;;;65.20;30.83;;;;;;;;;;5073143;28;20516;-52
2021/04/30 06:36:04;;;;;;;77.23;34.13;;;;;;;;;;5072962;28;20496;-53
2021/04/30 06:38:30;;;;;;;60.87;30.07;;;;;;;;;;5073048;28;20526;-52
2021/04/30 06:40:56;;;;;;;78.10;33.90;;;;;;;;;;5072653;28;20437;-53
2021/04/30 06:43:22;;;;;;;76.00;34.20;;;;;;;;;;5073133;28;20415;-53
2021/04/30 06:45:48;;;;;;;66.60;34.00;;;;;;;;;;5073088;28;20409;-52
2021/04/30 06:48:14;;;;;;;68.90;33.47;;;;;;;;;;5072862;28;20935;-52
2021/04/30 06:50:40;;;;;;;73.70;33.53;;;;;;;;;;5072553;28;20414;-57
2021/04/30 06:53:06;;;;;;;79.50;36.90;;;;;;;;;;5073427;28;20488;-54
2021/04/30 06:55:32;;;;;;;68.30;32.80;;;;;;;;;;5073294;28;20408;-53
2021/04/30 06:57:58;;;;;;;67.67;33.03;;;;;;;;;;5073089;28;20462;-55
2021/04/30 07:00:24;;;;;;;76.43;32.30;;;;;;;;;;5072432;28;20393;-54
2021/04/30 07:02:50;;;;;;;71.73;33.53;;;;;;;;;;5073206;28;20875;-54
2021/04/30 07:05:16;;;;;;;77.23;33.50;;;;;;;;;;5073151;28;20398;-54
2021/04/30 07:07:42;;;;;;;73.47;33.10;;;;;;;;;;5073170;28;20421;-54
2021/04/30 07:10:09;;;;;;;62.93;30.03;;;;;;;;;;5072647;28;20413;-54
2021/04/30 07:12:35;;;;;;;80.03;33.97;;;;;;;;;;5073114;28;20407;-53
2021/04/30 07:15:01;;;;;;;71.73;33.30;;;;;;;;;;5072971;28;20446;-53
2021/04/30 07:17:28;;;;;;;85.87;33.53;;;;;;;;;;5072931;28;20452;-53
2021/04/30 07:19:54;;;;;;;65.57;32.33;;;;;;;;;;5072611;28;20495;-53
2021/04/30 07:22:20;;;;;;;76.33;33.73;;;;;;;;;;5073509;28;20903;-54
2021/04/30 07:24:46;;;;;;;78.90;33.97;;;;;;;;;;5072581;28;20401;-54
2021/04/30 07:27:12;;;;;;;66.67;30.70;;;;;;;;;;5072975;28;20451;-54
2021/04/30 07:29:38;;;;;;;71.00;31.93;;;;;;;;;;5072272;28;20449;-54
2021/04/30 07:32:05;;;;;;;69.63;32.93;;;;;;;;;;5072716;28;20932;-54
2021/04/30 07:34:31;;;;;;;68.27;33.60;;;;;;;;;;5072826;28;20814;-54
2021/04/30 07:36:57;;;;;;;77.87;32.63;;;;;;;;;;5072232;28;20543;-54
2021/04/30 07:39:23;;;;;;;64.77;32.00;;;;;;;;;;5071622;28;20565;-54
2021/04/30 07:41:49;;;;;;;76.20;31.10;;;;;;;;;;5071692;28;20495;-54
2021/04/30 07:44:15;;;;;;;69.70;33.70;;;;;;;;;;5072357;28;20494;-54
2021/04/30 07:46:41;;;;;;;61.43;32.40;;;;;;;;;;5072514;28;20403;-54
2021/04/30 07:49:07;;;;;;;68.07;34.77;;;;;;;;;;5071976;28;20470;-54
2021/04/30 07:51:33;;;;;;;70.40;31.90;;;;;;;;;;5072131;28;20407;-54
2021/04/30 07:53:59;;;;;;;73.23;33.13;;;;;;;;;;5071921;28;20490;-55
2021/04/30 07:56:25;;;;;;;68.00;31.40;;;;;;;;;;5071973;28;20585;-54
2021/04/30 07:58:51;;;;;;;67.30;36.17;;;;;;;;;;5071764;28;20431;-54
2021/04/30 08:01:17;;;;;;;72.57;34.27;;;;;;;;;;5072072;28;20400;-54
2021/04/30 08:03:44;;;;;;;73.17;31.40;;;;;;;;;;5071970;28;20412;-54
2021/04/30 08:06:10;;;;;;;73.20;32.73;;;;;;;;;;5072339;28;20401;-54
2021/04/30 08:08:37;;;;;;;70.83;32.90;;;;;;;;;;5071593;28;20423;-55
2021/04/30 08:11:03;;;;;;;63.77;32.10;;;;;;;;;;5071647;28;20874;-54
2021/04/30 08:13:29;;;;;;;67.60;30.50;;;;;;;;;;5070824;28;20516;-54
2021/04/30 08:15:55;;;;;;;60.10;31.37;;;;;;;;;;5071599;28;20494;-54
2021/04/30 08:18:21;;;;;;;65.40;30.17;;;;;;;;;;5071532;28;20467;-54
2021/04/30 08:20:47;;;;;;;59.60;30.73;;;;;;;;;;5071252;28;20489;-54
2021/04/30 08:23:14;;;;;;;61.33;30.00;;;;;;;;;;5071460;28;20541;-54
2021/04/30 08:25:40;;;;;;;64.73;31.13;;;;;;;;;;5071538;28;20944;-54
2021/04/30 08:28:06;;;;;;;67.33;33.37;;;;;;;;;;5071391;28;20505;-54
2021/04/30 08:30:32;;;;;;;56.60;29.53;;;;;;;;;;5071000;28;20899;-54
2021/04/30 08:33:06;;;;;;;68.17;30.63;;;;;;;;;;5108547;27;20515;-54
2021/04/30 08:35:32;;;;;;;62.43;32.17;;;;;;;;;;5108371;28;20413;-54
2021/04/30 08:37:59;;;;;;;59.57;31.07;;;;;;;;;;5108693;28;20484;-54
2021/04/30 08:40:25;;;;;;;64.87;32.53;;;;;;;;;;5108272;28;20946;-53
2021/04/30 08:42:51;;;;;;;67.73;31.17;;;;;;;;;;5108594;28;20394;-54
2021/04/30 08:45:17;;;;;;;62.90;33.17;;;;;;;;;;5108580;28;20474;-54
2021/04/30 08:47:44;;;;;;;63.90;31.90;;;;;;;;;;5108459;28;20441;-54
2021/04/30 08:50:11;;;;;;;68.00;33.37;;;;;;;;;;5108199;28;20871;-54
2021/04/30 08:52:37;;;;;;;63.23;31.43;;;;;;;;;;5108456;28;20460;-54
2021/04/30 08:55:06;;;;;;;64.80;31.80;;;;;;;;;;5108478;28;20446;-54
2021/04/30 08:57:32;;;;;;;67.10;32.27;;;;;;;;;;5108198;28;20988;-54
2021/04/30 08:59:59;;;;;;;69.37;33.53;;;;;;;;;;5108014;28;20543;-53
2021/04/30 09:02:26;;;;;;;67.20;31.77;;;;;;;;;;5108047;28;20774;-54
2021/04/30 09:04:52;;;;;;;62.87;33.23;;;;;;;;;;5107950;28;20485;-54
2021/04/30 09:07:24;;;;;;;69.93;34.23;;;;;;;;;;5107901;28;20402;-54
2021/04/30 09:09:57;;;;;;;63.87;34.20;;;;;;;;;;5107915;28;20399;-54
2021/04/30 09:12:24;;;;;;;67.83;35.00;;;;;;;;;;5107770;28;20864;-54
2021/04/30 09:14:50;;;;;;;65.80;33.37;;;;;;;;;;5106945;28;20870;-54
2021/04/30 09:17:17;;;;;;;58.57;32.17;;;;;;;;;;5107452;28;20401;-54
2021/04/30 09:19:47;;;;;;;58.27;32.70;;;;;;;;;;5107453;28;20405;-54
2021/04/30 09:22:14;;;;;;;62.70;31.10;;;;;;;;;;5107501;28;21063;-54
2021/04/30 09:24:41;;;;;;;65.17;33.50;;;;;;;;;;5107787;28;20471;-54
2021/04/30 09:27:07;;;;;;;67.73;33.53;;;;;;;;;;5107522;28;20851;-54
2021/04/30 09:29:34;;;;;;;64.23;32.70;;;;;;;;;;5107179;28;20419;-53
2021/04/30 09:32:01;;;;;;;63.90;33.00;;;;;;;;;;5107185;28;20822;-54
2021/04/30 09:34:27;;;;;;;66.70;34.93;;;;;;;;;;5107460;28;20813;-53
2021/04/30 09:37:13;;;;;;;64.70;33.23;;;;;;;;;;5107387;28;20415;-54
2021/04/30 09:39:50;;;;;;;66.07;33.90;;;;;;;;;;5106941;28;20412;-54
2021/04/30 09:42:17;;;;;;;58.90;33.53;;;;;;;;;;5106026;28;20394;-54
2021/04/30 09:44:45;;;;;;;67.07;33.10;;;;;;;;;;5093456;28;20422;-53
2021/04/30 09:47:11;;;;;;;60.97;32.60;;;;;;;;;;5093576;28;20434;-53
2021/04/30 09:49:38;;;;;;;63.30;32.40;;;;;;;;;;5093156;28;20427;-54
2021/04/30 09:52:04;;;;;;;57.50;31.10;;;;;;;;;;5093523;28;20889;-54
2021/04/30 09:54:31;;;;;;;57.27;32.23;;;;;;;;;;5093359;28;20809;-54
2021/04/30 09:57:07;;;;;;;70.33;35.10;;;;;;;;;;5093374;28;20876;-54
2021/04/30 09:59:35;;;;;;;65.43;33.63;;;;;;;;;;5093118;28;20457;-54
2021/04/30 10:02:05;;;;;;;56.50;31.40;;;;;;;;;;5093487;28;20408;-54
2021/04/30 10:04:32;;;;;;;59.87;34.07;;;;;;;;;;5093619;28;20411;-54
2021/04/30 10:06:59;;;;;;;55.97;33.17;;;;;;;;;;5091821;28;20873;-54
2021/04/30 10:09:28;;;;;;;55.10;30.07;;;;;;;;;;5093052;28;20508;-54
2021/04/30 10:11:54;;;;;;;51.83;31.20;;;;;;;;;;5093168;28;20498;-54
2021/04/30 10:14:22;;;;;;;53.87;31.17;;;;;;;;;;5093130;28;20922;-54
2021/04/30 10:16:49;;;;;;;51.13;30.10;;;;;;;;;;5093010;28;20425;-54
2021/04/30 10:19:15;;;;;;;48.13;29.47;;;;;;;;;;5092610;28;20421;-54
2021/04/30 10:21:41;;;;;;;47.27;30.13;;;;;;;;;;5092819;28;20411;-54
2021/04/30 10:24:12;;;;;;;58.40;31.90;;;;;;;;;;5092764;28;20408;-54
2021/04/30 10:26:38;;;;;;;52.93;30.00;;;;;;;;;;5093058;28;20941;-53
2021/04/30 10:29:06;;;;;;;50.17;30.73;;;;;;;;;;5092481;28;20435;-54
2021/04/30 10:31:35;;;;;;;43.27;29.30;;;;;;;;;;5092412;28;21131;-54
2021/04/30 10:34:04;;;;;;;49.07;30.07;;;;;;;;;;5092655;28;20518;-54
2021/04/30 10:36:33;;;;;;;51.23;31.33;;;;;;;;;;5092403;28;20400;-55
2021/04/30 10:39:01;;;;;;;50.67;30.17;;;;;;;;;;5092311;28;20429;-54
2021/04/30 10:41:27;;;;;;;50.93;30.13;;;;;;;;;;5092612;28;20404;-54
2021/04/30 10:44:11;;;;;;;51.40;30.93;;;;;;;;;;5092584;28;20399;-54
2021/04/30 10:46:37;;;;;;;59.77;34.07;;;;;;;;;;5092515;28;20405;-54
2021/04/30 10:49:06;;;;;;;49.70;29.83;;;;;;;;;;5091977;28;20423;-54
2021/04/30 10:51:32;;;;;;;46.37;28.90;;;;;;;;;;5092457;28;20447;-54
2021/04/30 10:54:22;;;;;;;53.30;28.77;;;;;;;;;;5092162;28;20765;-54
2021/04/30 10:56:57;;;;;;;55.27;29.30;;;;;;;;;;5081584;28;20424;-53
2021/04/30 10:59:41;;;;;;;47.60;30.10;;;;;;;;;;5091802;28;20915;-54
2021/04/30 11:02:12;;;;;;;53.90;29.83;;;;;;;;;;5092290;28;20399;-54
2021/04/30 11:04:38;;;;;;;53.33;31.40;;;;;;;;;;5092326;28;20407;-54
2021/04/30 11:07:08;;;;;;;58.50;32.63;;;;;;;;;;5091987;28;20826;-54
2021/04/30 11:09:35;;;;;;;63.47;33.00;;;;;;;;;;5091689;28;20856;-54
2021/04/30 11:12:02;;;;;;;57.97;33.67;;;;;;;;;;5092054;28;20546;-54
2021/04/30 11:14:30;;;;;;;53.77;32.27;;;;;;;;;;5092101;28;20474;-54
2021/04/30 11:16:56;;;;;;;58.23;34.10;;;;;;;;;;5090640;28;20825;-53
2021/04/30 11:19:23;;;;;;;61.67;34.43;;;;;;;;;;5091605;28;20818;-54
2021/04/30 11:21:54;;;;;;;57.50;34.00;;;;;;;;;;5091912;28;20455;-53
2021/04/30 11:24:29;;;;;;;58.33;34.93;;;;;;;;;;5091549;28;20406;-54
2021/04/30 11:27:27;;;;;;;57.90;34.00;;;;;;;;;;5091511;28;20410;-53
2021/04/30 11:30:13;;;;;;;55.13;32.50;;;;;;;;;;5046644;28;20800;-54
2021/04/30 11:32:43;;;;;;;55.83;33.00;;;;;;;;;;5091313;28;20455;-54
2021/04/30 11:35:12;;;;;;;61.47;32.37;;;;;;;;;;5091487;28;20828;-54
2021/04/30 11:37:39;;;;;;;52.33;32.37;;;;;;;;;;5091429;28;20450;-54
2021/04/30 11:40:06;;;;;;;58.40;32.60;;;;;;;;;;5091130;28;20413;-54
2021/04/30 11:42:32;;;;;;;58.10;33.60;;;;;;;;;;5091421;28;20418;-53
2021/04/30 11:44:59;;;;;;;55.13;33.10;;;;;;;;;;5091171;28;20421;-54
2021/04/30 11:47:29;;;;;;;49.10;29.67;;;;;;;;;;5091199;28;20427;-54
2021/04/30 11:49:56;;;;;;;58.30;31.80;;;;;;;;;;5090982;28;20413;-54
2021/04/30 11:52:29;;;;;;;50.00;28.83;;;;;;;;;;5091312;28;20871;-54
2021/04/30 11:55:03;;;;;;;47.70;30.57;;;;;;;;;;5091124;28;20402;-54
2021/04/30 11:57:30;;;;;;;50.20;29.83;;;;;;;;;;5091094;28;20405;-54
2021/04/30 11:59:57;;;;;;;34.33;22.40;;;;;;;;;;5090774;28;20777;-54
2021/04/30 12:02:25;;;;;;;36.33;24.20;;;;;;;;;;5091204;28;20402;-54
2021/04/30 12:04:53;;;;;;;43.30;26.30;;;;;;;;;;5090897;28;20396;-54
2021/04/30 12:07:20;;;;;;;38.87;25.57;;;;;;;;;;5090689;28;20488;-54
2021/04/30 12:09:46;;;;;;;41.83;25.10;;;;;;;;;;5090705;28;20403;-54
2021/04/30 12:12:12;;;;;;;43.97;25.70;;;;;;;;;;5090794;28;21101;-54
2021/04/30 12:14:44;;;;;;;34.03;22.77;;;;;;;;;;5090914;28;20410;-54
2021/04/30 12:17:30;;;;;;;32.77;21.60;;;;;;;;;;5091133;28;20764;-54
2021/04/30 12:19:57;;;;;;;35.93;22.43;;;;;;;;;;5090555;28;20443;-54
2021/04/30 12:22:23;;;;;;;33.10;21.80;;;;;;;;;;5090714;28;20865;-54
2021/04/30 12:24:49;;;;;;;34.50;23.80;;;;;;;;;;5090929;28;20410;-54
2021/04/30 12:27:26;;;;;;;35.80;22.10;;;;;;;;;;5089606;28;20415;-54
2021/04/30 12:29:52;;;;;;;39.43;26.67;;;;;;;;;;5090610;28;20381;-54
2021/04/30 12:32:28;;;;;;;36.93;24.10;;;;;;;;;;5090600;28;20437;-54
2021/04/30 12:34:56;;;;;;;32.83;22.37;;;;;;;;;;5090904;28;20395;-54
2021/04/30 12:37:23;;;;;;;31.53;21.07;;;;;;;;;;5090630;28;20469;-54
2021/04/30 12:39:49;;;;;;;31.73;23.10;;;;;;;;;;5090939;28;20785;-54
2021/04/30 12:42:15;;;;;;;39.40;23.80;;;;;;;;;;5088529;28;20431;-54
2021/04/30 12:44:55;;;;;;;30.43;21.53;;;;;;;;;;5079192;28;20387;-54
2021/04/30 12:47:21;;;;;;;39.50;24.70;;;;;;;;;;5090550;28;20408;-54
2021/04/30 12:49:47;;;;;;;36.60;24.60;;;;;;;;;;5090440;28;20392;-54
2021/04/30 12:52:15;;;;;;;32.27;23.30;;;;;;;;;;5090478;28;20459;-54
2021/04/30 12:54:41;;;;;;;39.93;24.30;;;;;;;;;;5090595;28;20395;-54
2021/04/30 12:57:10;;;;;;;39.63;23.90;;;;;;;;;;5090552;28;20406;-54
2021/04/30 12:59:37;;;;;;;34.90;22.43;;;;;;;;;;5090203;28;20774;-54
2021/04/30 13:02:14;;;;;;;31.43;19.63;;;;;;;;;;5090449;28;20487;-55
2021/04/30 13:04:49;;;;;;;30.47;20.30;;;;;;;;;;5090686;28;20431;-54
2021/04/30 13:07:15;;;;;;;27.07;19.60;;;;;;;;;;5090460;28;20438;-54
2021/04/30 13:09:42;;;;;;;32.33;21.20;;;;;;;;;;5090057;28;20407;-54
2021/04/30 13:12:11;;;;;;;29.57;20.57;;;;;;;;;;5090416;28;20454;-53
2021/04/30 13:14:43;;;;;;;32.83;22.33;;;;;;;;;;5090190;28;20406;-54
2021/04/30 13:17:37;;;;;;;30.73;21.70;;;;;;;;;;5090483;28;20409;-54
2021/04/30 13:20:16;;;;;;;32.43;21.50;;;;;;;;;;5090889;28;20419;-54
2021/04/30 13:22:43;;;;;;;35.60;23.17;;;;;;;;;;5092733;28;20414;-54
2021/04/30 13:25:09;;;;;;;30.90;20.70;;;;;;;;;;5094395;28;20408;-52
2021/04/30 13:27:51;;;;;;;27.23;19.50;;;;;;;;;;5093961;28;20407;-52
2021/04/30 13:30:17;;;;;;;30.77;20.40;;;;;;;;;;5093542;28;20490;-54
2021/04/30 13:32:43;;;;;;;29.10;19.80;;;;;;;;;;5093973;28;20510;-54
2021/04/30 13:35:09;;;;;;;29.40;21.30;;;;;;;;;;5093720;28;20479;-55
2021/04/30 13:37:36;;;;;;;31.60;20.93;;;;;;;;;;5093723;28;20398;-54
2021/04/30 13:40:04;;;;;;;36.23;22.97;;;;;;;;;;5092789;28;20432;-53
2021/04/30 13:42:30;;;;;;;29.27;20.87;;;;;;;;;;5092183;28;20427;-53
2021/04/30 13:44:58;;;;;;;30.80;19.53;;;;;;;;;;5093392;28;20443;-53
2021/04/30 13:47:25;;;;;;;28.43;20.17;;;;;;;;;;5093027;28;20456;-53
2021/04/30 13:49:52;;;;;;;31.20;19.17;;;;;;;;;;5093383;28;20759;-53
2021/04/30 13:52:19;;;;;;;25.90;19.60;;;;;;;;;;5093452;28;20517;-53
2021/04/30 13:54:45;;;;;;;25.30;18.97;;;;;;;;;;5093561;28;20438;-53
2021/04/30 13:57:11;;;;;;;25.57;18.87;;;;;;;;;;5093521;28;20446;-53
2021/04/30 13:59:38;;;;;;;25.23;19.50;;;;;;;;;;5093133;28;20412;-53
2021/04/30 14:02:05;;;;;;;22.97;16.40;;;;;;;;;;5093413;28;20407;-53
2021/04/30 14:04:31;;;;;;;20.63;15.10;;;;;;;;;;5093361;28;20370;-53
2021/04/30 14:06:57;;;;;;;20.53;16.80;;;;;;;;;;5093151;28;20428;-53
2021/04/30 14:09:23;;;;;;;20.10;14.87;;;;;;;;;;5092866;28;20428;-53
2021/04/30 14:11:49;;;;;;;20.33;15.83;;;;;;;;;;5092974;28;20476;-54
2021/04/30 14:14:16;;;;;;;17.03;14.80;;;;;;;;;;5093225;28;20411;-54
2021/04/30 14:16:42;;;;;;;21.50;17.50;;;;;;;;;;5093034;28;20378;-53